Time;durP1;ratioP1;P1;durP2;ratioP2;P2;SDS_P1;SDS_P2;PMS_P1;PMS_P2;Temp;Humidity;BMP_temperature;BMP_pressure;BME280_temperature;BME280_humidity;BME280_pressure;Samples;Min_cycle;Max_cycle;Signal;HPM_P1;HPM_P2
2022/10/01 00:01:50;;;;;;;4.70;1.90;;;;;;;12.13;100.00;98324.91;5062147;28;20059;-58
2022/10/01 00:04:16;;;;;;;4.25;2.00;;;;;;;12.05;100.00;98329.13;5085132;28;20033;-58
2022/10/01 00:06:41;;;;;;;5.82;2.63;;;;;;;12.06;100.00;98332.53;5012862;28;20040;-58
2022/10/01 00:09:07;;;;;;;5.10;2.30;;;;;;;12.11;100.00;98325.06;5082481;28;20687;-59
2022/10/01 00:11:33;;;;;;;4.57;1.90;;;;;;;12.08;100.00;98341.00;5074744;28;20066;-59
2022/10/01 00:13:59;;;;;;;5.18;2.17;;;;;;;12.10;100.00;98344.25;5065635;28;20031;-59
2022/10/01 00:16:26;;;;;;;15.07;7.53;;;;;;;11.95;100.00;98333.66;5072639;28;20029;-57
2022/10/01 00:18:52;;;;;;;14.90;7.82;;;;;;;12.08;100.00;98349.66;5074009;28;20028;-56
2022/10/01 00:21:20;;;;;;;8.02;3.85;;;;;;;12.07;100.00;98339.41;5073522;28;20201;-57
2022/10/01 00:23:46;;;;;;;4.38;2.20;;;;;;;11.83;100.00;98281.03;5077419;28;20462;-60
2022/10/01 00:26:14;;;;;;;5.13;2.03;;;;;;;11.97;100.00;98304.84;5065825;28;20032;-59
2022/10/01 00:28:44;;;;;;;4.40;2.10;;;;;;;11.67;100.00;98257.56;5063970;28;20027;-58
2022/10/01 00:31:11;;;;;;;5.13;2.40;;;;;;;12.10;100.00;98324.25;5066136;28;20034;-58
2022/10/01 00:33:38;;;;;;;4.30;2.00;;;;;;;12.13;100.00;98338.75;5075997;28;20040;-59
2022/10/01 00:36:04;;;;;;;4.88;2.15;;;;;;;12.11;100.00;98344.09;5075872;28;20024;-57
2022/10/01 00:38:30;;;;;;;4.93;2.47;;;;;;;12.15;100.00;98344.59;5075805;28;20035;-59
2022/10/01 00:40:57;;;;;;;4.40;2.00;;;;;;;12.13;100.00;98335.31;5083749;28;20162;-57
2022/10/01 00:43:25;;;;;;;4.85;2.30;;;;;;;12.05;100.00;98326.53;5069008;28;20036;-60
2022/10/01 00:45:53;;;;;;;5.40;2.70;;;;;;;12.10;100.00;98326.03;5079961;28;20043;-57
2022/10/01 00:48:20;;;;;;;5.15;2.58;;;;;;;12.10;100.00;98329.47;5031408;28;20092;-59
2022/10/01 00:50:47;;;;;;;4.93;2.35;;;;;;;12.09;100.00;98329.63;5038226;28;20017;-57
2022/10/01 00:53:14;;;;;;;4.90;2.30;;;;;;;11.89;100.00;98301.22;5068184;28;20035;-57
2022/10/01 00:55:44;;;;;;;5.45;2.40;;;;;;;12.03;100.00;98344.13;5078333;28;20372;-58
2022/10/01 00:58:12;;;;;;;5.88;2.60;;;;;;;11.82;100.00;98294.22;5062672;28;20453;-57
2022/10/01 01:00:38;;;;;;;4.97;2.85;;;;;;;12.07;100.00;98335.00;5061234;28;20032;-58
2022/10/01 01:03:04;;;;;;;6.10;3.00;;;;;;;12.09;100.00;98337.44;5073924;28;20047;-58
2022/10/01 01:05:31;;;;;;;5.60;2.70;;;;;;;12.03;100.00;98327.63;5073383;28;20029;-58
2022/10/01 01:08:00;;;;;;;5.30;2.78;;;;;;;12.04;100.00;98329.28;5070286;28;20482;-58
2022/10/01 01:10:38;;;;;;;5.35;2.80;;;;;;;12.00;100.00;98318.38;5005750;28;20028;-58
2022/10/01 01:13:27;;;;;;;4.57;2.42;;;;;;;12.07;100.00;98327.16;5061964;28;20035;-59
2022/10/01 01:16:10;;;;;;;5.45;2.63;;;;;;;11.81;100.00;98293.41;5078258;28;20039;-58
2022/10/01 01:18:57;;;;;;;4.97;2.42;;;;;;;12.05;100.00;98334.34;5076239;28;20052;-59
2022/10/01 01:21:29;;;;;;;5.20;2.63;;;;;;;12.05;100.00;98328.31;5074860;28;20472;-57
2022/10/01 01:24:15;;;;;;;6.10;2.85;;;;;;;12.09;100.00;98333.03;5079164;28;20016;-58
2022/10/01 01:26:50;;;;;;;6.25;2.20;;;;;;;12.14;100.00;98335.16;5073651;28;20799;-59
2022/10/01 01:29:37;;;;;;;5.85;2.80;;;;;;;12.03;100.00;98331.09;5069445;28;20036;-57
2022/10/01 01:32:08;;;;;;;4.60;2.33;;;;;;;12.03;100.00;98327.63;5016603;28;20036;-58
2022/10/01 01:34:35;;;;;;;6.90;2.47;;;;;;;12.09;100.00;98325.22;5061009;28;20032;-59
2022/10/01 01:37:11;;;;;;;5.90;3.08;;;;;;;12.10;100.00;98324.25;5077067;28;20193;-57
2022/10/01 01:39:38;;;;;;;5.60;2.55;;;;;;;12.14;100.00;98329.97;5076134;28;20119;-59
2022/10/01 01:42:07;;;;;;;5.25;2.40;;;;;;;12.12;100.00;98337.13;5074607;28;20059;-58
2022/10/01 01:44:37;;;;;;;4.05;1.83;;;;;;;12.14;100.00;98343.00;5070291;28;20071;-59
2022/10/01 01:47:03;;;;;;;;;;;;;;;12.19;100.00;98338.09;5069364;28;20038;-59
2022/10/01 01:49:28;;;;;;;6.47;2.30;;;;;;;12.21;100.00;98340.53;5111762;27;20392;-58
2022/10/01 01:52:14;;;;;;;7.55;3.97;;;;;;;12.16;100.00;98337.63;5074451;28;20093;-60
2022/10/01 01:54:41;;;;;;;8.18;4.38;;;;;;;12.14;100.00;98347.38;5054573;28;20060;-58
2022/10/01 01:57:07;;;;;;;8.18;3.38;;;;;;;12.00;100.00;98305.34;5060216;28;20032;-58
2022/10/01 01:59:33;;;;;;;6.47;3.42;;;;;;;12.27;100.00;98340.72;5064862;28;20124;-59
2022/10/01 02:01:59;;;;;;;6.00;3.20;;;;;;;12.30;100.00;98336.97;5062569;28;20531;-57
2022/10/01 02:04:58;;;;;;;6.55;3.38;;;;;;;12.30;100.00;98340.41;5065133;28;20128;-57
2022/10/01 02:07:41;;;;;;;4.82;2.38;;;;;;;12.29;100.00;98333.53;5071941;28;20048;-58
2022/10/01 02:10:16;;;;;;;4.93;2.33;;;;;;;12.32;100.00;98332.41;5074960;28;20028;-57
2022/10/01 02:12:53;;;;;;;4.43;1.95;;;;;;;12.34;100.00;98335.69;5078413;28;20026;-58
2022/10/01 02:15:35;;;;;;;5.45;2.17;;;;;;;12.17;100.00;98307.97;4990424;28;20119;-57
2022/10/01 02:18:21;;;;;;;4.20;2.08;;;;;;;12.28;100.00;98328.50;5079015;28;20487;-58
2022/10/01 02:21:10;;;;;;;6.85;2.20;;;;;;;12.06;100.00;98296.88;5068243;28;20119;-57
2022/10/01 02:23:43;;;;;;;4.57;2.25;;;;;;;12.22;100.00;98329.94;5074865;28;20134;-57
2022/10/01 02:26:12;;;;;;;5.30;1.95;;;;;;;11.84;100.00;98279.22;5069192;28;20024;-59
2022/10/01 02:28:39;;;;;;;4.28;2.17;;;;;;;12.11;100.00;98331.06;5075763;28;20024;-58
2022/10/01 02:31:06;;;;;;;4.13;2.00;;;;;;;12.11;100.00;98319.84;5076511;28;20039;-57
2022/10/01 02:33:35;;;;;;;4.15;2.10;;;;;;;12.30;100.00;98339.56;5078947;28;20109;-57
2022/10/01 02:36:03;;;;;;;4.30;2.00;;;;;;;12.26;100.00;98327.84;5003750;28;20039;-58
2022/10/01 02:38:29;;;;;;;4.72;2.40;;;;;;;12.18;100.00;98330.44;5059583;28;20036;-58
2022/10/01 02:40:59;;;;;;;3.80;1.67;;;;;;;12.16;100.00;98335.81;5078272;28;20027;-59
2022/10/01 02:43:40;;;;;;;4.13;1.50;;;;;;;12.07;100.00;98337.59;5078768;28;20059;-60
2022/10/01 02:46:20;;;;;;;4.18;1.35;;;;;;;12.13;100.00;98340.53;5077886;28;20098;-58
2022/10/01 02:48:45;;;;;;;4.03;1.30;;;;;;;12.13;100.00;98338.75;5080712;28;20082;-59
2022/10/01 02:51:25;;;;;;;3.90;1.45;;;;;;;12.15;100.00;98342.00;5063867;28;20593;-58
2022/10/01 02:53:56;;;;;;;3.28;1.30;;;;;;;12.11;100.00;98335.47;5078172;28;20029;-57
2022/10/01 02:59:06;;;;;;;4.10;1.50;;;;;;;12.24;100.00;98324.56;5069969;28;20078;-60
2022/10/01 03:01:34;;;;;;;3.33;1.50;;;;;;;11.97;100.00;98308.25;5102358;27;20039;-58
2022/10/01 03:03:59;;;;;;;3.42;1.50;;;;;;;12.11;100.00;98331.06;5081270;28;20531;-58
2022/10/01 03:06:26;;;;;;;3.35;1.50;;;;;;;12.09;100.00;98343.47;5061907;28;20038;-57
2022/10/01 03:08:52;;;;;;;3.70;1.50;;;;;;;12.05;100.00;98355.19;5063270;28;20143;-58
2022/10/01 03:11:18;;;;;;;4.00;1.77;;;;;;;12.10;100.00;98347.72;5057979;28;20332;-57
2022/10/01 03:13:43;;;;;;;3.30;1.40;;;;;;;12.07;100.00;98348.03;5063355;28;20066;-57
2022/10/01 03:16:09;;;;;;;3.50;1.38;;;;;;;11.97;100.00;98317.88;5060215;28;20061;-57
2022/10/01 03:18:34;;;;;;;4.70;2.10;;;;;;;11.93;100.00;98327.78;4999436;28;20101;-59
2022/10/01 03:21:00;;;;;;;4.00;1.63;;;;;;;12.04;100.00;98361.34;5058902;28;20451;-57
2022/10/01 03:23:25;;;;;;;3.97;1.70;;;;;;;11.88;100.00;98353.47;5059506;28;20028;-58
2022/10/01 03:25:50;;;;;;;5.07;1.48;;;;;;;11.94;100.00;98347.69;5067723;28;20036;-59
2022/10/01 03:28:16;;;;;;;3.50;1.40;;;;;;;11.66;100.00;98306.25;5074274;28;20038;-57
2022/10/01 03:30:41;;;;;;;3.90;1.35;;;;;;;11.98;100.00;98348.19;5080426;28;20036;-58
2022/10/01 03:33:07;;;;;;;3.08;1.10;;;;;;;11.89;100.00;98348.13;5067834;28;20755;-58
2022/10/01 03:35:32;;;;;;;3.88;1.50;;;;;;;11.91;100.00;98338.38;5074829;28;20066;-57
2022/10/01 03:37:57;;;;;;;2.95;1.33;;;;;;;11.94;100.00;98332.03;5086328;28;20482;-57
2022/10/01 03:40:24;;;;;;;3.67;1.30;;;;;;;11.97;100.00;98331.72;4993071;28;20034;-59
2022/10/01 03:42:49;;;;;;;3.92;1.20;;;;;;;11.63;100.00;98288.31;5054548;28;20029;-60
2022/10/01 03:45:15;;;;;;;3.90;1.40;;;;;;;11.64;100.00;98282.13;5105285;27;20550;-56
2022/10/01 03:47:41;;;;;;;3.35;1.30;;;;;;;11.90;100.00;98310.72;5058525;28;20123;-57
2022/10/01 03:50:06;;;;;;;3.50;1.05;;;;;;;11.84;100.00;98313.91;5088471;28;20039;-58
2022/10/01 03:52:32;;;;;;;4.43;1.65;;;;;;;11.79;100.00;98310.16;5055746;28;20056;-58
2022/10/01 03:54:59;;;;;;;3.20;1.20;;;;;;;11.82;100.00;98313.25;5058183;28;20737;-56
2022/10/01 03:57:24;;;;;;;3.40;1.30;;;;;;;11.86;100.00;98318.97;5075654;28;20656;-57
2022/10/01 03:59:50;;;;;;;3.35;1.30;;;;;;;11.82;100.00;98317.66;5062270;28;20039;-60
2022/10/01 04:02:15;;;;;;;3.63;1.50;;;;;;;11.69;100.00;98318.91;4992019;28;20447;-57
2022/10/01 04:04:41;;;;;;;5.05;1.83;;;;;;;11.69;100.00;98316.31;5059147;28;20048;-57
2022/10/01 04:07:06;;;;;;;4.00;1.90;;;;;;;11.67;100.00;98314.84;5068100;28;20040;-59
2022/10/01 04:09:31;;;;;;;4.53;2.10;;;;;;;11.69;100.00;98308.50;5070006;28;20044;-57
2022/10/01 04:11:58;;;;;;;4.70;1.73;;;;;;;11.44;100.00;98276.38;5058047;28;20043;-56
2022/10/01 04:14:23;;;;;;;5.47;1.60;;;;;;;11.63;100.00;98316.16;5086271;28;20024;-57
2022/10/01 04:16:51;;;;;;;3.40;1.30;;;;;;;11.71;100.00;98311.75;5078734;28;20030;-58
2022/10/01 04:19:16;;;;;;;4.97;1.80;;;;;;;11.74;100.00;98315.84;5082931;28;20036;-58
2022/10/01 04:21:42;;;;;;;4.28;1.85;;;;;;;11.77;100.00;98315.50;5018262;28;20101;-60
2022/10/01 04:24:07;;;;;;;4.30;1.98;;;;;;;11.66;100.00;98298.44;5025406;28;20055;-58
2022/10/01 04:26:33;;;;;;;4.25;1.80;;;;;;;11.84;100.00;98329.53;5077389;28;20193;-58
2022/10/01 04:28:58;;;;;;;4.30;1.58;;;;;;;11.81;100.00;98329.03;5076561;28;20039;-59
2022/10/01 04:31:24;;;;;;;3.92;1.85;;;;;;;11.59;100.00;98301.81;5061775;28;20166;-57
2022/10/01 04:33:52;;;;;;;5.35;1.67;;;;;;;11.71;100.00;98337.81;5062293;28;20118;-59
2022/10/01 04:36:17;;;;;;;7.22;1.60;;;;;;;11.70;100.00;98340.56;5066196;28;20028;-57
2022/10/01 04:38:42;;;;;;;3.88;1.42;;;;;;;11.76;100.00;98341.75;5059937;28;20031;-60
2022/10/01 04:41:08;;;;;;;4.03;1.50;;;;;;;11.42;100.00;98293.13;5080586;28;20028;-58
2022/10/01 04:43:34;;;;;;;4.60;1.70;;;;;;;11.68;100.00;98343.34;5060126;28;20475;-57
2022/10/01 04:46:00;;;;;;;4.65;1.70;;;;;;;11.69;100.00;98347.56;5077303;28;20115;-59
2022/10/01 04:48:25;;;;;;;4.30;1.50;;;;;;;11.74;100.00;98334.91;5078273;28;20030;-57
2022/10/01 04:50:51;;;;;;;3.30;1.38;;;;;;;11.65;100.00;98348.88;5066048;28;20119;-58
2022/10/01 04:53:16;;;;;;;4.22;1.70;;;;;;;11.65;100.00;98345.47;5082458;28;20131;-58
2022/10/01 04:55:42;;;;;;;3.72;1.63;;;;;;;11.72;100.00;98359.47;5059017;28;20028;-57
2022/10/01 04:58:08;;;;;;;4.22;1.40;;;;;;;11.44;100.00;98328.44;5081837;28;20016;-57
2022/10/01 05:00:33;;;;;;;4.70;1.65;;;;;;;11.65;100.00;98353.28;5083378;28;20036;-58
2022/10/01 05:02:59;;;;;;;5.88;1.90;;;;;;;11.68;100.00;98358.97;5082857;28;20490;-56
2022/10/01 05:05:26;;;;;;;3.70;1.40;;;;;;;11.69;100.00;98359.78;5058493;28;20032;-58
2022/10/01 05:07:52;;;;;;;3.80;1.50;;;;;;;11.60;100.00;98356.34;5063263;28;20143;-57
2022/10/01 05:10:19;;;;;;;3.60;1.50;;;;;;;11.52;100.00;98354.53;5063418;28;20813;-58
2022/10/01 05:12:46;;;;;;;4.82;1.60;;;;;;;11.52;100.00;98356.31;5062615;28;20043;-59
2022/10/01 05:15:11;;;;;;;4.20;1.65;;;;;;;11.56;100.00;98365.44;5058754;28;20389;-57
2022/10/01 05:17:37;;;;;;;4.63;1.40;;;;;;;11.53;100.00;98365.75;5068826;28;20038;-59
2022/10/01 05:20:05;;;;;;;3.83;1.65;;;;;;;11.57;100.00;98361.03;5082492;28;20086;-59
2022/10/01 05:22:31;;;;;;;3.90;1.63;;;;;;;11.62;100.00;98356.97;5060254;28;20032;-57
2022/10/01 05:24:58;;;;;;;5.00;1.88;;;;;;;11.62;100.00;98348.38;5065272;28;20032;-59
2022/10/01 05:27:25;;;;;;;3.70;1.33;;;;;;;11.67;100.00;98354.72;5070502;28;20059;-56
2022/10/01 05:29:51;;;;;;;3.35;1.48;;;;;;;11.69;100.00;98351.97;5074603;28;20029;-57
2022/10/01 05:32:16;;;;;;;5.45;1.40;;;;;;;11.68;100.00;98356.38;5075176;28;20656;-58
2022/10/01 05:34:42;;;;;;;4.18;1.80;;;;;;;11.37;100.00;98304.00;5055051;28;20016;-60
2022/10/01 05:37:08;;;;;;;4.70;1.50;;;;;;;11.74;100.00;98367.94;5056820;28;20028;-58
2022/10/01 05:39:33;;;;;;;3.95;1.67;;;;;;;11.76;100.00;98373.81;5075445;28;20032;-61
2022/10/01 05:42:01;;;;;;;3.70;1.60;;;;;;;11.27;100.00;98309.34;5093745;28;20563;-58
2022/10/01 05:44:27;;;;;;;2.78;1.10;;;;;;;11.66;100.00;98378.31;5063056;28;20036;-60
2022/10/01 05:46:52;;;;;;;3.35;1.30;;;;;;;11.66;100.00;98373.94;5026855;28;20530;-60
2022/10/01 05:49:18;;;;;;;4.28;1.60;;;;;;;11.69;100.00;98368.41;5071849;28;20649;-58
2022/10/01 05:51:44;;;;;;;3.58;1.50;;;;;;;11.69;100.00;98373.63;5056340;28;20116;-57
2022/10/01 05:54:11;;;;;;;4.47;1.30;;;;;;;11.61;100.00;98352.78;5045289;28;20101;-60
2022/10/01 05:56:36;;;;;;;3.72;1.48;;;;;;;11.82;100.00;98375.78;5074271;28;20063;-57
2022/10/01 05:59:03;;;;;;;3.40;1.35;;;;;;;11.88;100.00;98380.38;5058967;28;20170;-58
2022/10/01 06:01:28;;;;;;;4.43;1.55;;;;;;;11.87;100.00;98381.31;5068981;28;20043;-59
2022/10/01 06:03:54;;;;;;;3.80;1.40;;;;;;;11.87;100.00;98389.16;5055624;28;20032;-58
2022/10/01 06:06:21;;;;;;;4.00;1.58;;;;;;;11.96;100.00;98389.22;5060200;28;20531;-59
2022/10/01 06:08:47;;;;;;;3.83;1.52;;;;;;;11.81;100.00;98381.97;5061455;28;20031;-57
2022/10/01 06:11:12;;;;;;;4.30;1.30;;;;;;;11.91;100.00;98394.88;5059791;28;20044;-57
2022/10/01 06:13:39;;;;;;;2.92;1.10;;;;;;;11.99;100.00;98396.69;5078754;28;20632;-59
2022/10/01 06:16:04;;;;;;;3.22;1.40;;;;;;;11.96;100.00;98390.03;5075926;28;20485;-57
2022/10/01 06:18:30;;;;;;;3.50;1.30;;;;;;;11.97;100.00;98407.28;5072717;28;20028;-58
2022/10/01 06:20:57;;;;;;;3.00;1.20;;;;;;;12.01;100.00;98412.97;5108342;27;20497;-57
2022/10/01 06:23:23;;;;;;;3.65;1.30;;;;;;;11.97;100.00;98409.88;5099431;27;20119;-57
2022/10/01 06:25:48;;;;;;;3.40;1.30;;;;;;;12.01;100.00;98410.38;5059681;28;20116;-58
2022/10/01 06:28:14;;;;;;;3.53;1.40;;;;;;;12.09;100.00;98421.66;5051669;28;20542;-58
2022/10/01 06:30:40;;;;;;;5.05;1.50;;;;;;;12.03;100.00;98417.06;5107074;27;20028;-59
2022/10/01 06:33:07;;;;;;;3.50;1.40;;;;;;;12.03;100.00;98434.47;5103524;27;20101;-61
2022/10/01 06:35:34;;;;;;;4.15;1.45;;;;;;;12.02;100.00;98436.28;5076604;28;20028;-59
2022/10/01 06:38:00;;;;;;;3.05;1.20;;;;;;;11.97;100.00;98432.53;5053597;28;20039;-58
2022/10/01 06:40:28;;;;;;;5.40;1.30;;;;;;;11.85;100.00;98401.50;5072143;28;20555;-58
2022/10/01 06:42:57;;;;;;;4.68;1.17;;;;;;;12.10;100.00;98449.34;4999305;28;20060;-58
2022/10/01 06:45:26;;;;;;;3.30;1.10;;;;;;;12.15;100.00;98440.22;5059552;28;20024;-59
2022/10/01 06:47:54;;;;;;;3.90;1.48;;;;;;;12.16;100.00;98441.88;5076433;28;20115;-59
2022/10/01 06:50:19;;;;;;;2.95;1.33;;;;;;;12.24;100.00;98437.47;5067469;28;20089;-58
2022/10/01 06:52:47;;;;;;;3.53;1.30;;;;;;;12.24;100.00;98440.09;5054092;28;20024;-58
2022/10/01 06:55:14;;;;;;;2.95;1.20;;;;;;;11.77;100.00;98361.59;5105224;27;20035;-60
2022/10/01 06:57:39;;;;;;;3.30;1.33;;;;;;;12.30;100.00;98441.22;5070131;28;20024;-57
2022/10/01 07:00:05;;;;;;;3.20;1.20;;;;;;;12.08;100.00;98399.19;5085480;28;20042;-58
2022/10/01 07:02:31;;;;;;;2.95;1.40;;;;;;;12.39;100.00;98447.28;5034474;28;20385;-56
2022/10/01 07:05:00;;;;;;;3.25;1.27;;;;;;;12.39;100.00;98457.72;5084443;28;20247;-57
2022/10/01 07:07:36;;;;;;;2.85;1.15;;;;;;;12.36;100.00;98461.47;5055256;28;20058;-60
2022/10/01 07:10:04;;;;;;;3.28;1.25;;;;;;;12.23;100.00;98448.91;5072989;28;20028;-60
2022/10/01 07:12:29;;;;;;;3.35;1.13;;;;;;;12.30;100.00;98456.88;5059882;28;20442;-58
2022/10/01 07:14:55;;;;;;;3.78;1.10;;;;;;;12.40;100.00;98462.78;5072038;28;20028;-57
2022/10/01 07:17:21;;;;;;;2.97;1.00;;;;;;;12.35;100.00;98456.41;5054218;28;20032;-60
2022/10/01 07:19:47;;;;;;;4.28;1.13;;;;;;;12.21;100.00;98429.16;5070456;28;20028;-57
2022/10/01 07:22:12;;;;;;;3.10;1.20;;;;;;;12.45;100.00;98462.31;5094117;28;20454;-59
2022/10/01 07:24:37;;;;;;;3.70;1.38;;;;;;;12.50;100.00;98466.06;5068234;28;20482;-58
2022/10/01 07:27:03;;;;;;;5.55;1.67;;;;;;;12.55;100.00;98470.78;5066255;28;20056;-59
2022/10/01 07:29:29;;;;;;;5.43;1.65;;;;;;;12.30;100.00;98439.47;5096758;27;20653;-58
2022/10/01 07:31:59;;;;;;;3.10;1.20;;;;;;;12.42;100.00;98468.66;5096325;27;20027;-57
2022/10/01 07:34:29;;;;;;;;;;;;;;;12.43;100.00;98465.06;5053546;28;20146;-61
2022/10/01 07:36:55;;;;;;;3.80;1.48;;;;;;;12.44;100.00;98468.50;5075458;27;20315;-58
2022/10/01 07:39:21;;;;;;;4.82;1.90;;;;;;;12.38;100.00;98462.13;5042720;28;20047;-57
2022/10/01 07:41:47;;;;;;;4.15;1.63;;;;;;;12.44;100.00;98471.91;5063121;28;20024;-57
2022/10/01 07:44:13;;;;;;;2.83;1.08;;;;;;;12.41;100.00;98461.81;5068976;28;20037;-59
2022/10/01 07:46:39;;;;;;;4.05;1.80;;;;;;;12.37;100.00;98457.06;5070976;28;20074;-57
2022/10/01 07:49:05;;;;;;;6.47;1.77;;;;;;;12.47;100.00;98455.13;5048971;28;20771;-57
2022/10/01 07:51:30;;;;;;;3.70;1.55;;;;;;;12.25;100.00;98414.84;5070621;28;20266;-56
2022/10/01 07:53:57;;;;;;;3.40;1.20;;;;;;;12.50;100.00;98463.47;5049637;28;20043;-57
2022/10/01 07:56:23;;;;;;;3.88;1.48;;;;;;;12.49;100.00;98458.41;5060905;28;20028;-57
2022/10/01 07:58:50;;;;;;;3.20;1.20;;;;;;;12.50;100.00;98466.06;5062405;28;20047;-58
2022/10/01 08:01:16;;;;;;;4.22;1.30;;;;;;;12.59;100.00;98460.84;5063507;28;20114;-58
2022/10/01 08:03:42;;;;;;;2.88;1.10;;;;;;;12.65;100.00;98478.47;5036519;28;20028;-58
2022/10/01 08:06:10;;;;;;;2.97;1.10;;;;;;;12.61;100.00;98474.53;5065430;28;20039;-62
2022/10/01 08:08:36;;;;;;;3.17;1.20;;;;;;;12.68;100.00;98478.94;5069874;28;20032;-57
2022/10/01 08:11:02;;;;;;;2.97;1.20;;;;;;;12.75;100.00;98484.34;5066964;28;20058;-62
2022/10/01 08:13:27;;;;;;;4.25;1.20;;;;;;;12.78;100.00;98476.19;5063558;28;20470;-60
2022/10/01 08:15:53;;;;;;;2.97;1.00;;;;;;;12.88;100.00;98482.06;5072024;28;20049;-61
2022/10/01 08:18:20;;;;;;;2.50;1.00;;;;;;;12.94;100.00;98488.44;5062101;28;20033;-59
2022/10/01 08:20:46;;;;;;;2.63;1.00;;;;;;;12.84;100.00;98495.59;5081222;28;20034;-58
2022/10/01 08:23:13;;;;;;;2.95;1.20;;;;;;;12.94;100.00;98496.28;5080709;28;20032;-58
2022/10/01 08:25:40;;;;;;;5.35;1.10;;;;;;;12.96;100.00;98502.16;5072756;28;20398;-59
2022/10/01 08:28:06;;;;;;;4.15;1.10;;;;;;;12.95;100.00;98499.69;5065254;28;20029;-57
2022/10/01 08:30:32;;;;;;;8.43;1.38;;;;;;;12.88;100.00;98510.75;5067155;28;20016;-58
2022/10/01 08:32:59;;;;;;;4.63;1.23;;;;;;;12.90;100.00;98518.44;5066106;28;20717;-57
2022/10/01 08:35:25;;;;;;;3.15;1.10;;;;;;;12.91;100.00;98493.19;5060205;28;20359;-58
2022/10/01 08:37:51;;;;;;;3.30;1.10;;;;;;;13.08;100.00;98511.25;5066717;28;20123;-62
2022/10/01 08:40:18;;;;;;;3.50;1.27;;;;;;;13.10;100.00;98508.50;5071338;28;20487;-58
2022/10/01 08:42:58;;;;;;;3.08;1.10;;;;;;;13.12;100.00;98503.94;5067551;28;20024;-59
2022/10/01 08:46:00;;;;;;;2.45;1.00;;;;;;;13.19;99.80;98504.91;5082957;28;20032;-58
2022/10/01 08:49:10;;;;;;;2.85;1.00;;;;;;;13.21;100.00;98494.31;5001081;28;20032;-58
2022/10/01 08:51:42;;;;;;;3.47;1.20;;;;;;;13.25;99.11;98503.44;5014276;28;20025;-57
2022/10/01 08:54:16;;;;;;;2.53;0.98;;;;;;;13.02;99.57;98470.16;5062826;28;21314;-58
2022/10/01 08:56:46;;;;;;;2.75;1.17;;;;;;;13.35;100.00;98501.50;5068655;28;20055;-59
2022/10/01 08:59:21;;;;;;;4.13;1.17;;;;;;;13.19;98.82;98463.13;5064884;28;20162;-60
2022/10/01 09:01:48;;;;;;;2.63;0.90;;;;;;;13.48;99.41;98498.38;5101105;27;20131;-59
2022/10/01 09:04:13;;;;;;;1.98;0.75;;;;;;;13.57;97.68;98500.00;5060719;28;20082;-59
2022/10/01 09:06:39;;;;;;;2.35;0.90;;;;;;;13.51;99.20;98492.00;5077132;28;20490;-57
2022/10/01 09:09:24;;;;;;;3.03;1.10;;;;;;;13.64;99.02;98500.16;5073727;28;20028;-59
2022/10/01 09:12:18;;;;;;;2.53;1.10;;;;;;;13.67;99.59;98499.00;5055380;28;20059;-60
2022/10/01 09:14:59;;;;;;;3.50;1.25;;;;;;;13.44;98.10;98468.38;5049465;28;20036;-57
2022/10/01 09:17:38;;;;;;;3.25;0.98;;;;;;;13.62;97.53;98489.06;5078827;28;20040;-60
2022/10/01 09:20:18;;;;;;;3.20;1.00;;;;;;;13.77;97.27;98479.53;5078640;28;20730;-58
2022/10/01 09:23:02;;;;;;;2.15;0.77;;;;;;;13.83;96.00;98481.47;5073988;28;20040;-57
2022/10/01 09:25:28;;;;;;;2.53;0.98;;;;;;;13.91;96.43;98478.03;5068015;28;20107;-58
2022/10/01 09:28:00;;;;;;;4.00;1.00;;;;;;;14.02;94.74;98477.66;5077347;28;20032;-57
2022/10/01 09:30:27;;;;;;;2.53;0.85;;;;;;;13.77;93.96;98452.59;5060623;28;20036;-59
2022/10/01 09:33:11;;;;;;;2.22;0.80;;;;;;;13.64;93.17;98430.44;5081851;28;20112;-59
2022/10/01 09:35:44;;;;;;;3.42;1.00;;;;;;;13.99;93.70;98471.94;5078831;28;20111;-57
2022/10/01 09:38:17;;;;;;;2.55;0.80;;;;;;;14.00;92.64;98468.34;5071129;28;20040;-58
2022/10/01 09:40:54;;;;;;;2.45;0.85;;;;;;;14.01;92.00;98476.00;5111865;27;20075;-58
2022/10/01 09:43:31;;;;;;;3.35;0.90;;;;;;;14.01;92.58;98478.63;5075715;28;20159;-59
2022/10/01 09:45:57;;;;;;;3.60;0.95;;;;;;;14.11;93.69;98470.59;5075382;28;20540;-57
2022/10/01 09:48:26;;;;;;;3.33;1.00;;;;;;;14.26;92.69;98465.44;5060894;28;20681;-59
2022/10/01 09:50:57;;;;;;;2.97;1.10;;;;;;;14.40;93.67;98464.72;5076623;28;20094;-57
2022/10/01 09:53:47;;;;;;;3.63;1.00;;;;;;;14.20;91.42;98429.50;5073608;28;20542;-59
2022/10/01 09:56:18;;;;;;;3.25;1.08;;;;;;;14.35;92.39;98443.50;5064735;28;20063;-59
2022/10/01 09:58:47;;;;;;;2.55;0.88;;;;;;;14.16;92.68;98391.63;5081058;28;20111;-58
2022/10/01 10:01:19;;;;;;;5.10;0.80;;;;;;;14.13;91.74;98398.03;5065398;28;20046;-58
2022/10/01 10:03:56;;;;;;;1.95;0.70;;;;;;;14.19;92.68;98433.13;5057729;28;20424;-58
2022/10/01 10:06:26;;;;;;;3.05;0.90;;;;;;;14.28;90.57;98458.25;5076946;28;20036;-58
2022/10/01 10:08:52;;;;;;;2.85;0.80;;;;;;;14.26;91.23;98448.94;5058301;28;20032;-58
2022/10/01 10:11:24;;;;;;;2.30;0.77;;;;;;;14.34;91.68;98456.72;5083416;28;20071;-60
2022/10/01 10:13:55;;;;;;;2.70;0.90;;;;;;;14.58;91.14;98487.19;5072947;28;20020;-59
2022/10/01 10:16:26;;;;;;;2.45;0.95;;;;;;;14.23;89.82;98426.56;5069053;28;20023;-57
2022/10/01 10:18:57;;;;;;;1.90;0.80;;;;;;;14.32;90.43;98427.31;5084384;28;20028;-57
2022/10/01 10:21:26;;;;;;;2.65;0.80;;;;;;;14.59;91.04;98466.09;5068794;28;20074;-59
2022/10/01 10:24:03;;;;;;;3.20;0.65;;;;;;;14.40;90.59;98435.94;5067951;28;20047;-57
2022/10/01 10:26:37;;;;;;;3.78;0.80;;;;;;;14.62;89.25;98470.19;5075528;28;20071;-58
2022/10/01 10:29:04;;;;;;;2.65;0.90;;;;;;;14.70;88.55;98479.78;5083696;27;20890;-58
2022/10/01 10:31:43;;;;;;;1.33;0.50;;;;;;;14.64;87.09;98473.44;5058973;28;20047;-57
2022/10/01 10:34:16;;;;;;;3.45;0.70;;;;;;;14.71;87.26;98487.44;5068462;28;20032;-57
2022/10/01 10:36:43;;;;;;;2.05;0.80;;;;;;;14.56;86.48;98447.28;5085342;27;20036;-56
2022/10/01 10:39:22;;;;;;;3.13;0.80;;;;;;;14.68;86.25;98466.03;5068727;28;20024;-57
2022/10/01 10:41:49;;;;;;;2.63;0.90;;;;;;;14.76;87.64;98450.28;5075894;28;20118;-58
2022/10/01 10:44:20;;;;;;;3.17;0.77;;;;;;;14.68;85.78;98451.16;5061243;28;20043;-58
2022/10/01 10:46:46;;;;;;;3.30;0.90;;;;;;;14.81;87.47;98468.88;5078509;28;20028;-58
2022/10/01 10:49:28;;;;;;;3.58;0.70;;;;;;;14.77;85.49;98460.56;5061335;28;20043;-58
2022/10/01 10:51:56;;;;;;;2.65;0.80;;;;;;;14.82;86.58;98461.84;5070983;28;20021;-57
2022/10/01 10:54:31;;;;;;;2.67;0.95;;;;;;;14.90;86.32;98469.66;5071233;28;20640;-58
2022/10/01 10:57:01;;;;;;;2.65;0.82;;;;;;;14.89;85.51;98460.16;5060057;28;20036;-57
2022/10/01 10:59:30;;;;;;;2.80;0.93;;;;;;;14.88;87.08;98456.72;5101335;27;20117;-58
2022/10/01 11:01:57;;;;;;;3.25;0.88;;;;;;;14.82;88.08;98417.34;5054162;28;20715;-58
2022/10/01 11:04:40;;;;;;;4.15;1.02;;;;;;;15.17;87.34;98448.13;5067475;28;20039;-60
2022/10/01 11:07:08;;;;;;;3.40;1.17;;;;;;;15.19;86.11;98443.53;5063224;28;20056;-61
2022/10/01 11:09:52;;;;;;;1.83;0.60;;;;;;;15.19;85.27;98433.03;5069738;28;20107;-58
2022/10/01 11:12:17;;;;;;;4.03;0.90;;;;;;;15.36;85.99;98433.69;5045138;28;20055;-59
2022/10/01 11:14:59;;;;;;;3.28;0.80;;;;;;;15.26;85.35;98430.53;5074097;28;20101;-58
2022/10/01 11:17:56;;;;;;;1.75;0.70;;;;;;;15.31;85.35;98429.97;5066367;28;20135;-57
2022/10/01 11:20:33;;;;;;;2.13;0.70;;;;;;;15.36;83.94;98433.69;5082757;27;20585;-58
2022/10/01 11:23:08;;;;;;;7.10;3.78;;;;;;;15.10;84.82;98412.38;5073319;28;20024;-58
2022/10/01 11:26:02;;;;;;;2.92;0.90;;;;;;;15.23;84.84;98440.56;5068462;28;20055;-58
2022/10/01 11:28:43;;;;;;;2.20;0.82;;;;;;;14.95;83.95;98392.22;5061590;28;20335;-59
2022/10/01 11:31:32;;;;;;;3.00;1.00;;;;;;;15.18;84.39;98407.84;5062743;28;20640;-59
2022/10/01 11:34:16;;;;;;;2.43;0.80;;;;;;;15.51;82.66;98448.59;5040242;28;20036;-61
2022/10/01 11:37:13;;;;;;;3.72;0.98;;;;;;;15.39;83.92;98393.25;5060297;28;20125;-59
2022/10/01 11:39:41;;;;;;;3.67;1.45;;;;;;;15.74;83.53;98427.59;5061949;28;20023;-59
2022/10/01 11:42:12;;;;;;;4.30;1.83;;;;;;;15.91;82.79;98436.84;5065700;28;20025;-60